createdAt,value
2023-01-18T00:01:36.781Z,83.82
2023-01-18T00:06:28.697Z,83.42
2023-01-18T00:11:20.343Z,83.58
2023-01-18T00:16:15.246Z,83.90
2023-01-18T00:21:10.695Z,83.67
2023-01-18T00:26:08.412Z,83.61
2023-01-18T00:31:00.354Z,83.31
2023-01-18T00:35:59.422Z,82.84
2023-01-18T00:40:51.447Z,83.25
2023-01-18T00:45:43.205Z,83.43
2023-01-18T00:50:34.856Z,83.45
2023-01-18T00:55:27.014Z,83.76
2023-01-18T01:00:19.028Z,83.90
2023-01-18T01:05:37.889Z,83.78
2023-01-18T01:10:29.556Z,83.19
2023-01-18T01:15:39.754Z,84.22
2023-01-18T01:20:49.989Z,83.66
2023-01-18T01:26:01.581Z,83.72
2023-01-18T01:30:57.798Z,83.10
2023-01-18T01:35:49.905Z,83.20
2023-01-18T01:40:41.543Z,83.08
2023-01-18T01:45:33.861Z,83.53
2023-01-18T01:50:35.857Z,83.45
2023-01-18T01:55:34.932Z,83.33
2023-01-18T02:00:26.954Z,83.62
2023-01-18T02:05:19.040Z,83.38
2023-01-18T02:10:11.252Z,83.36
2023-01-18T02:15:03.443Z,82.94
2023-01-18T02:20:19.574Z,83.62
2023-01-18T02:25:33.253Z,83.13
2023-01-18T02:31:02.148Z,83.08
2023-01-18T02:35:56.584Z,83.40
2023-01-18T02:40:57.353Z,84.33
2023-01-18T02:46:08.671Z,84.42
2023-01-18T02:51:00.348Z,83.89
2023-01-18T02:56:13.051Z,84.33
2023-01-18T03:01:07.485Z,84.15
2023-01-18T03:06:02.236Z,84.12
2023-01-18T03:11:04.781Z,83.79
2023-01-18T03:16:22.700Z,84.50
2023-01-18T03:21:14.431Z,84.29
2023-01-18T03:26:12.055Z,84.85
2023-01-18T03:31:28.737Z,84.86
2023-01-18T03:36:25.397Z,84.65
2023-01-18T03:41:18.588Z,83.58
2023-01-18T03:46:11.876Z,84.12
2023-01-18T03:51:21.093Z,83.89
2023-01-18T03:56:39.109Z,83.55
2023-01-18T04:01:31.502Z,84.13
2023-01-18T04:06:25.705Z,83.52
2023-01-18T04:11:18.027Z,84.05
2023-01-18T04:16:09.941Z,83.53
2023-01-18T04:21:01.594Z,84.03
2023-01-18T04:25:53.213Z,83.75
2023-01-18T04:30:45.607Z,83.43
2023-01-18T04:35:37.472Z,84.29
2023-01-18T04:40:29.010Z,83.81
2023-01-18T04:45:20.934Z,84.32
2023-01-18T04:50:12.665Z,84.16
2023-01-18T04:55:04.606Z,83.51
2023-01-18T04:59:56.263Z,83.26
2023-01-18T05:04:48.082Z,84.19
2023-01-18T05:09:39.700Z,83.36
2023-01-18T05:14:31.340Z,83.16
2023-01-18T05:19:22.933Z,83.01
2023-01-18T05:24:14.580Z,83.21
2023-01-18T05:29:06.475Z,83.01
2023-01-18T05:33:58.031Z,82.84
2023-01-18T05:38:49.688Z,83.36
2023-01-18T05:43:41.430Z,83.14
2023-01-18T05:48:33.388Z,82.72
2023-01-18T05:53:25.748Z,83.40
2023-01-18T05:58:17.369Z,83.72
2023-01-18T06:03:10.765Z,83.87
2023-01-18T06:08:02.678Z,84.30
2023-01-18T06:12:54.329Z,83.48
2023-01-18T06:17:49.358Z,83.47
2023-01-18T06:22:41.240Z,83.20
2023-01-18T06:27:32.832Z,83.16
2023-01-18T06:32:24.473Z,83.45
2023-01-18T06:37:16.112Z,83.54
2023-01-18T06:42:07.684Z,83.94
2023-01-18T06:46:59.308Z,83.55
2023-01-18T06:51:50.894Z,83.38
2023-01-18T06:56:42.840Z,82.80
2023-01-18T07:01:34.473Z,83.54
2023-01-18T07:06:26.262Z,82.97
2023-01-18T07:11:18.808Z,83.45
2023-01-18T07:16:17.953Z,83.13
2023-01-18T07:21:10.707Z,83.16
2023-01-18T07:26:04.206Z,82.74
2023-01-18T07:30:55.793Z,82.29
2023-01-18T07:35:47.360Z,82.65
2023-01-18T07:40:39.042Z,82.13
2023-01-18T07:45:30.663Z,82.21
2023-01-18T07:50:22.548Z,82.41
2023-01-18T07:55:14.240Z,81.99
2023-01-18T08:00:11.119Z,82.83
2023-01-18T08:05:05.892Z,83.15
2023-01-18T08:09:58.044Z,82.49
2023-01-18T08:14:49.663Z,82.85
2023-01-18T08:19:41.363Z,82.16
2023-01-18T08:24:32.943Z,80.98
2023-01-18T08:29:24.656Z,80.48
2023-01-18T08:34:16.286Z,79.47
2023-01-18T08:39:07.955Z,78.49
2023-01-18T08:43:59.882Z,77.81
2023-01-18T08:48:54.871Z,76.56
2023-01-18T08:53:47.469Z,76.05
2023-01-18T08:58:39.044Z,74.55
2023-01-18T09:03:30.611Z,74.23
2023-01-18T09:08:22.804Z,74.80
2023-01-18T09:13:14.602Z,73.74
2023-01-18T09:18:08.057Z,73.74
2023-01-18T09:23:04.787Z,72.71
2023-01-18T09:27:56.412Z,72.27
2023-01-18T09:32:48.004Z,71.90
2023-01-18T09:37:39.583Z,71.99
2023-01-18T09:42:37.849Z,71.79
2023-01-18T09:47:34.415Z,69.35
2023-01-18T09:52:32.358Z,69.49
2023-01-18T09:57:30.161Z,69.20
2023-01-18T10:02:24.372Z,68.75
2023-01-18T10:07:17.974Z,69.67
2023-01-18T10:12:24.739Z,68.96
2023-01-18T10:17:28.923Z,68.14
2023-01-18T10:22:34.239Z,68.11
2023-01-18T10:27:37.591Z,68.07
2023-01-18T10:32:31.462Z,68.43
2023-01-18T10:37:45.442Z,67.58
2023-01-18T10:42:48.801Z,66.35
2023-01-18T10:47:40.410Z,66.36
2023-01-18T10:52:32.603Z,67.10
2023-01-18T10:57:32.150Z,66.24
2023-01-18T11:02:29.526Z,65.51
2023-01-18T11:07:25.654Z,65.13
2023-01-18T11:12:38.510Z,64.49
2023-01-18T11:17:30.964Z,64.48
2023-01-18T11:22:24.390Z,64.54
2023-01-18T11:27:23.102Z,63.14
2023-01-18T11:32:30.336Z,63.25
2023-01-18T11:37:27.875Z,62.10
2023-01-18T11:42:36.623Z,62.77
2023-01-18T11:47:37.675Z,62.14
2023-01-18T11:52:51.742Z,62.12
2023-01-18T11:57:44.928Z,61.51
2023-01-18T12:02:45.494Z,61.34
2023-01-18T12:08:05.533Z,61.10
2023-01-18T12:13:31.342Z,60.65
2023-01-18T12:18:28.869Z,60.73
2023-01-18T12:23:43.610Z,60.40
2023-01-18T12:29:12.899Z,59.81
2023-01-18T12:34:18.680Z,60.37
2023-01-18T12:39:47.596Z,58.90
2023-01-18T12:45:00.829Z,58.68
2023-01-18T12:49:59.326Z,58.76
2023-01-18T12:54:56.011Z,58.75
2023-01-18T13:00:09.135Z,58.52
2023-01-18T13:05:43.148Z,59.52
2023-01-18T13:10:36.479Z,58.87
2023-01-18T13:15:52.541Z,58.33
2023-01-18T13:21:03.059Z,57.76
2023-01-18T13:26:14.850Z,58.29
2023-01-18T13:31:06.767Z,57.30
2023-01-18T13:36:09.961Z,57.53
2023-01-18T13:41:04.785Z,56.36
2023-01-18T13:46:08.603Z,57.11
2023-01-18T13:51:00.873Z,56.26
2023-01-18T13:56:04.895Z,56.32
2023-01-18T14:01:05.488Z,57.22
2023-01-18T14:05:58.472Z,57.71
2023-01-18T14:10:53.656Z,56.31
2023-01-18T14:15:52.003Z,55.42
2023-01-18T14:21:25.807Z,55.90
2023-01-18T14:26:19.348Z,56.41
2023-01-18T14:31:18.517Z,56.25
2023-01-18T14:36:24.469Z,56.54
2023-01-18T14:41:17.916Z,57.11
2023-01-18T14:46:16.535Z,56.78
2023-01-18T14:51:08.172Z,56.94
2023-01-18T14:56:18.329Z,57.44
2023-01-18T15:01:31.639Z,58.09
2023-01-18T15:06:30.339Z,58.69
2023-01-18T15:11:23.613Z,59.91
2023-01-18T15:16:24.261Z,60.31
2023-01-18T15:21:21.519Z,60.50
2023-01-18T15:26:13.640Z,61.25
2023-01-18T15:31:15.353Z,61.62
2023-01-18T15:36:09.892Z,61.46
2023-01-18T15:41:10.981Z,61.69
2023-01-18T15:46:08.865Z,62.79
2023-01-18T15:51:07.374Z,63.26
2023-01-18T15:56:05.066Z,64.02
2023-01-18T16:01:00.351Z,63.21
2023-01-18T16:05:58.090Z,64.14
2023-01-18T16:10:55.626Z,64.24
2023-01-18T16:16:14.041Z,64.90
2023-01-18T16:21:11.967Z,65.14
2023-01-18T16:26:04.834Z,65.51
2023-01-18T16:30:56.580Z,65.71
2023-01-18T16:35:48.892Z,65.25
2023-01-18T16:40:44.043Z,65.47
2023-01-18T16:45:38.999Z,65.88
2023-01-18T16:50:31.291Z,66.24
2023-01-18T16:55:23.098Z,65.70
2023-01-18T17:00:19.280Z,66.13
2023-01-18T17:05:12.036Z,66.73
2023-01-18T17:10:18.780Z,65.86
2023-01-18T17:15:10.858Z,65.85
2023-01-18T17:20:16.362Z,66.26
2023-01-18T17:25:08.378Z,66.66
2023-01-18T17:30:00.646Z,66.92
2023-01-18T17:34:52.305Z,67.15
2023-01-18T17:40:02.243Z,67.36
2023-01-18T17:45:02.562Z,66.74
2023-01-18T17:49:54.420Z,67.13
2023-01-18T17:54:46.080Z,67.53
2023-01-18T17:59:37.605Z,68.21
2023-01-18T18:04:30.624Z,68.50
2023-01-18T18:09:22.239Z,68.35
2023-01-18T18:14:13.800Z,69.16
2023-01-18T18:19:05.938Z,69.68
2023-01-18T18:23:58.566Z,69.73
2023-01-18T18:28:50.245Z,69.71
2023-01-18T18:33:42.502Z,71.03
2023-01-18T18:38:34.332Z,70.93
2023-01-18T18:43:26.193Z,72.04
2023-01-18T18:48:17.995Z,72.55
2023-01-18T18:53:09.744Z,72.52
2023-01-18T18:58:01.643Z,72.39
2023-01-18T19:03:02.382Z,73.15
2023-01-18T19:07:58.249Z,72.76
2023-01-18T19:12:51.967Z,72.35
2023-01-18T19:17:43.728Z,71.84
2023-01-18T19:22:38.127Z,71.27
2023-01-18T19:27:30.145Z,71.56
2023-01-18T19:32:22.003Z,71.28
2023-01-18T19:37:13.866Z,70.81
2023-01-18T19:42:06.864Z,70.13
2023-01-18T19:46:58.524Z,70.56
2023-01-18T19:51:50.307Z,70.43
2023-01-18T19:56:41.937Z,70.17
2023-01-18T20:01:36.791Z,70.14
2023-01-18T20:06:28.876Z,70.38
2023-01-18T20:11:20.584Z,71.51
2023-01-18T20:16:12.317Z,71.43
2023-01-18T20:21:14.193Z,71.06
2023-01-18T20:26:06.420Z,71.00
2023-01-18T20:30:59.691Z,71.29
2023-01-18T20:35:52.996Z,72.31
2023-01-18T20:40:44.682Z,73.00
2023-01-18T20:45:36.421Z,72.55
2023-01-18T20:50:28.303Z,72.61
2023-01-18T20:55:20.561Z,72.35
2023-01-18T21:00:13.254Z,72.41
2023-01-18T21:05:05.372Z,72.63
2023-01-18T21:09:57.050Z,72.60
2023-01-18T21:14:48.669Z,72.54
2023-01-18T21:19:47.489Z,72.78
2023-01-18T21:24:39.344Z,72.51
2023-01-18T21:29:30.923Z,73.08
2023-01-18T21:34:22.464Z,72.51
2023-01-18T21:39:18.485Z,72.23
2023-01-18T21:44:30.844Z,72.67
2023-01-18T21:50:11.443Z,72.38
2023-01-18T21:54:52.633Z,73.00
2023-01-18T21:59:45.468Z,73.71
2023-01-18T22:04:56.916Z,73.86
2023-01-18T22:10:03.129Z,74.67
2023-01-18T22:14:57.106Z,74.31
2023-01-18T22:19:48.814Z,73.67
2023-01-18T22:24:40.563Z,73.71
2023-01-18T22:29:32.784Z,73.48
2023-01-18T22:34:24.402Z,73.07
2023-01-18T22:39:16.463Z,73.54
2023-01-18T22:44:08.430Z,73.73
2023-01-18T22:49:00.125Z,73.33
2023-01-18T22:53:52.192Z,73.97
2023-01-18T22:58:45.158Z,74.06
2023-01-18T23:03:36.998Z,74.47
2023-01-18T23:08:38.392Z,74.81
2023-01-18T23:13:29.909Z,74.94
2023-01-18T23:18:21.430Z,75.69
2023-01-18T23:23:12.984Z,75.73
2023-01-18T23:28:05.066Z,75.49
2023-01-18T23:32:57.080Z,75.41
2023-01-18T23:37:48.662Z,75.72
2023-01-18T23:42:58.824Z,75.51
2023-01-18T23:48:09.001Z,76.58
2023-01-18T23:53:19.809Z,76.31
2023-01-18T23:58:11.689Z,76.57
